Tucson, AZ

3:11 PM MST on July 07, 2015 (GMT -0700)
UA WRRC WEATHER | | Change Station
CLOSE
Current Station
Personal Weather Station
Location: Tucson, AZ
Elevation: 2431 ft
Nearby Weather Stations

Elev 2431 ft 32.23 °N, 110.94 °W | Updated 1 minute ago

Clear
Clear
97.3 °F
Feels Like 97 °F
N
2.0
Wind Variable Wind from SE
Gusts 8.0 mph

Today
High -- | Low -- °F
--% Chance of Precip.
Yesterday
High -- | Low -- °F
Precip. -- in
5:23 AM 7:33 PM
Waning Gibbous, 61% visible
Pressure 29.75 in
Visibility 10.0 miles
Clouds Clear
Heat Index 97 °F
Dew Point 58 °F
Humidity 27%
Rainfall 0.00 in
Snow Depth Not available.
UV 9 out of 12
Pollen 3.00 out of 12
Air Quality Not available.
Flu Activity Not available.
METAR KDMA 072158Z AUTO 34005KT 10SM CLR 35/14 A2989 RMK AO2 SLP073 T03540143 $

More Conditions Fewer Conditions

Pressure 29.75 in
Visibility 10.0 miles
Clouds Clear
Heat Index 97 °F
Dew Point 58 °F
Humidity 27%
Rainfall 0.00 in
Snow Depth Not available.
UV 9 out of 12
Pollen 3.00 out of 12
Air Quality Not available.
Flu Activity Not available.
METAR KDMA 072158Z AUTO 34005KT 10SM CLR 35/14 A2989 RMK AO2 SLP073 T03540143 $

More Conditions Fewer Conditions

Nowcast | as of 2:30 PM MST on July 7, 2015

Isolated showers and thunderstorms continuing mainly east of Tucson through 5pm. Rainfall amounts will generally be under half an inch...with locally higher amounts exceeding 1 inch under stronger storms...or areas seeing multiple passes of storms.

×

10-Day Weather Forecast

×

Almanac

Astronomy

Jul. 07, 2015 Rise Set
Actual Time
Civil Twilight
Nautical Twilight
Astronomical Twilight
Moon
Length of Visible Light
Length of Day
Tomorrow will be .
, % of the Moon is Illuminated

Today's Extremes

State Highs State Lows

Community

WunderPhotos

Upload Photos

1,835,939 photos uploaded!

WunderBlogs® & News

Nearby

Air Quality

  Air Quality AQ Index Pollutant
Not available.

Snow Depth

Station Depth Elevation

Earthquake Activity

City Distance Mag. Time & Date
Minimum magnitude displayed is 2.5.

Coastal Water Temperatures

Place Temperature

Stations

Nearby Weather Stations

Station Location Temp. Windchill Dew Point Humidity Wind Precip. Elev Updated Type